sensor_id;sensor_type;location;lat;lon;timestamp;P1;durP1;ratioP1;P2;durP2;ratioP2
13250;SDS011;6692;50.710;7.180;2023-11-19T00:01:28;2.07;;;1.90;;
13250;SDS011;6692;50.710;7.180;2023-11-19T00:03:28;2.20;;;2.00;;
13250;SDS011;6692;50.710;7.180;2023-11-19T00:05:29;3.63;;;2.13;;
13250;SDS011;6692;50.710;7.180;2023-11-19T00:07:30;1.90;;;1.70;;
13250;SDS011;6692;50.710;7.180;2023-11-19T00:09:31;1.90;;;1.70;;
13250;SDS011;6692;50.710;7.180;2023-11-19T00:11:32;1.90;;;1.80;;
13250;SDS011;6692;50.710;7.180;2023-11-19T00:13:33;5.20;;;3.20;;
13250;SDS011;6692;50.710;7.180;2023-11-19T00:15:34;3.60;;;2.90;;
13250;SDS011;6692;50.710;7.180;2023-11-19T00:17:35;3.43;;;2.93;;
13250;SDS011;6692;50.710;7.180;2023-11-19T00:19:37;3.60;;;3.07;;
13250;SDS011;6692;50.710;7.180;2023-11-19T00:21:38;2.97;;;2.67;;
13250;SDS011;6692;50.710;7.180;2023-11-19T00:23:39;3.93;;;3.30;;
13250;SDS011;6692;50.710;7.180;2023-11-19T00:25:40;3.93;;;3.50;;
13250;SDS011;6692;50.710;7.180;2023-11-19T00:27:41;3.30;;;2.93;;
13250;SDS011;6692;50.710;7.180;2023-11-19T00:29:41;3.30;;;3.00;;
13250;SDS011;6692;50.710;7.180;2023-11-19T00:31:42;2.80;;;2.60;;
13250;SDS011;6692;50.710;7.180;2023-11-19T00:33:43;3.07;;;2.83;;
13250;SDS011;6692;50.710;7.180;2023-11-19T00:35:45;2.70;;;2.50;;
13250;SDS011;6692;50.710;7.180;2023-11-19T00:37:45;2.50;;;2.30;;
13250;SDS011;6692;50.710;7.180;2023-11-19T00:39:47;2.30;;;2.10;;
13250;SDS011;6692;50.710;7.180;2023-11-19T00:41:48;2.40;;;2.20;;
13250;SDS011;6692;50.710;7.180;2023-11-19T00:43:49;2.17;;;2.07;;
13250;SDS011;6692;50.710;7.180;2023-11-19T00:45:50;1.97;;;1.87;;
13250;SDS011;6692;50.710;7.180;2023-11-19T00:47:51;1.90;;;1.80;;
13250;SDS011;6692;50.710;7.180;2023-11-19T00:49:52;1.70;;;1.60;;
13250;SDS011;6692;50.710;7.180;2023-11-19T00:51:52;1.60;;;1.50;;
13250;SDS011;6692;50.710;7.180;2023-11-19T00:53:54;1.57;;;1.47;;
13250;SDS011;6692;50.710;7.180;2023-11-19T00:55:55;1.30;;;1.30;;
13250;SDS011;6692;50.710;7.180;2023-11-19T00:57:55;1.40;;;1.30;;
13250;SDS011;6692;50.710;7.180;2023-11-19T00:59:56;1.27;;;1.20;;
13250;SDS011;6692;50.710;7.180;2023-11-19T01:01:58;1.37;;;1.30;;
13250;SDS011;6692;50.710;7.180;2023-11-19T01:03:59;1.20;;;1.20;;
13250;SDS011;6692;50.710;7.180;2023-11-19T01:06:00;1.50;;;1.40;;
13250;SDS011;6692;50.710;7.180;2023-11-19T01:08:00;1.30;;;1.30;;
13250;SDS011;6692;50.710;7.180;2023-11-19T01:10:01;1.50;;;1.40;;
13250;SDS011;6692;50.710;7.180;2023-11-19T01:12:02;1.37;;;1.30;;
13250;SDS011;6692;50.710;7.180;2023-11-19T01:14:03;1.10;;;1.10;;
13250;SDS011;6692;50.710;7.180;2023-11-19T01:16:04;1.20;;;1.20;;
13250;SDS011;6692;50.710;7.180;2023-11-19T01:18:06;1.40;;;1.27;;
13250;SDS011;6692;50.710;7.180;2023-11-19T01:20:07;1.30;;;1.30;;
13250;SDS011;6692;50.710;7.180;2023-11-19T01:22:08;1.50;;;1.40;;
13250;SDS011;6692;50.710;7.180;2023-11-19T01:24:09;1.33;;;1.30;;
13250;SDS011;6692;50.710;7.180;2023-11-19T01:26:10;1.30;;;1.30;;
13250;SDS011;6692;50.710;7.180;2023-11-19T01:28:11;1.20;;;1.20;;
13250;SDS011;6692;50.710;7.180;2023-11-19T01:30:12;1.20;;;1.20;;
13250;SDS011;6692;50.710;7.180;2023-11-19T01:32:14;1.20;;;1.20;;
13250;SDS011;6692;50.710;7.180;2023-11-19T01:34:15;1.43;;;1.33;;
13250;SDS011;6692;50.710;7.180;2023-11-19T01:36:16;1.30;;;1.30;;
13250;SDS011;6692;50.710;7.180;2023-11-19T01:38:17;1.30;;;1.30;;
13250;SDS011;6692;50.710;7.180;2023-11-19T01:40:20;1.40;;;1.40;;
13250;SDS011;6692;50.710;7.180;2023-11-19T01:42:21;1.20;;;1.20;;
13250;SDS011;6692;50.710;7.180;2023-11-19T01:44:22;1.20;;;1.20;;
13250;SDS011;6692;50.710;7.180;2023-11-19T01:46:22;1.43;;;1.40;;
13250;SDS011;6692;50.710;7.180;2023-11-19T01:48:23;1.40;;;1.30;;
13250;SDS011;6692;50.710;7.180;2023-11-19T01:50:24;1.30;;;1.30;;
13250;SDS011;6692;50.710;7.180;2023-11-19T01:52:25;1.30;;;1.30;;
13250;SDS011;6692;50.710;7.180;2023-11-19T01:54:26;1.40;;;1.30;;
13250;SDS011;6692;50.710;7.180;2023-11-19T01:56:27;1.60;;;1.50;;
13250;SDS011;6692;50.710;7.180;2023-11-19T01:58:29;1.40;;;1.30;;
13250;SDS011;6692;50.710;7.180;2023-11-19T02:00:30;1.10;;;1.10;;
13250;SDS011;6692;50.710;7.180;2023-11-19T02:02:30;1.40;;;1.30;;
13250;SDS011;6692;50.710;7.180;2023-11-19T02:04:31;1.40;;;1.30;;
13250;SDS011;6692;50.710;7.180;2023-11-19T02:06:32;1.17;;;1.17;;
13250;SDS011;6692;50.710;7.180;2023-11-19T02:08:33;1.60;;;1.37;;
13250;SDS011;6692;50.710;7.180;2023-11-19T02:10:33;1.20;;;1.20;;
13250;SDS011;6692;50.710;7.180;2023-11-19T02:12:34;1.10;;;1.10;;
13250;SDS011;6692;50.710;7.180;2023-11-19T02:14:35;1.30;;;1.30;;
13250;SDS011;6692;50.710;7.180;2023-11-19T02:16:36;1.33;;;1.30;;
13250;SDS011;6692;50.710;7.180;2023-11-19T02:18:37;1.30;;;1.30;;
13250;SDS011;6692;50.710;7.180;2023-11-19T02:20:38;1.20;;;1.20;;
13250;SDS011;6692;50.710;7.180;2023-11-19T02:22:38;1.40;;;1.30;;
13250;SDS011;6692;50.710;7.180;2023-11-19T02:24:39;1.30;;;1.30;;
13250;SDS011;6692;50.710;7.180;2023-11-19T02:26:48;1.33;;;1.30;;
13250;SDS011;6692;50.710;7.180;2023-11-19T02:28:52;1.40;;;1.30;;
13250;SDS011;6692;50.710;7.180;2023-11-19T02:30:53;1.40;;;1.30;;
13250;SDS011;6692;50.710;7.180;2023-11-19T02:32:55;1.33;;;1.23;;
13250;SDS011;6692;50.710;7.180;2023-11-19T02:34:58;1.37;;;1.30;;
13250;SDS011;6692;50.710;7.180;2023-11-19T02:36:59;1.20;;;1.20;;
13250;SDS011;6692;50.710;7.180;2023-11-19T02:38:59;1.27;;;1.27;;
13250;SDS011;6692;50.710;7.180;2023-11-19T02:41:03;1.10;;;1.10;;
13250;SDS011;6692;50.710;7.180;2023-11-19T02:43:01;1.17;;;1.17;;
13250;SDS011;6692;50.710;7.180;2023-11-19T02:45:02;1.30;;;1.30;;
13250;SDS011;6692;50.710;7.180;2023-11-19T02:47:04;1.30;;;1.30;;
13250;SDS011;6692;50.710;7.180;2023-11-19T02:49:04;1.20;;;1.20;;
13250;SDS011;6692;50.710;7.180;2023-11-19T02:51:06;1.40;;;1.30;;
13250;SDS011;6692;50.710;7.180;2023-11-19T02:53:09;1.20;;;1.20;;
13250;SDS011;6692;50.710;7.180;2023-11-19T02:55:11;1.10;;;1.10;;
13250;SDS011;6692;50.710;7.180;2023-11-19T02:57:12;1.30;;;1.30;;
13250;SDS011;6692;50.710;7.180;2023-11-19T02:59:13;1.20;;;1.20;;
13250;SDS011;6692;50.710;7.180;2023-11-19T03:01:14;1.80;;;1.70;;
13250;SDS011;6692;50.710;7.180;2023-11-19T03:03:15;2.73;;;2.00;;
13250;SDS011;6692;50.710;7.180;2023-11-19T03:05:18;3.20;;;2.77;;
13250;SDS011;6692;50.710;7.180;2023-11-19T03:07:20;4.67;;;3.83;;
13250;SDS011;6692;50.710;7.180;2023-11-19T03:09:21;7.13;;;4.17;;
13250;SDS011;6692;50.710;7.180;2023-11-19T03:11:21;6.17;;;4.63;;
13250;SDS011;6692;50.710;7.180;2023-11-19T03:13:23;7.20;;;4.17;;
13250;SDS011;6692;50.710;7.180;2023-11-19T03:15:24;7.50;;;4.87;;
13250;SDS011;6692;50.710;7.180;2023-11-19T03:17:25;7.03;;;5.07;;
13250;SDS011;6692;50.710;7.180;2023-11-19T03:19:25;4.83;;;3.50;;
13250;SDS011;6692;50.710;7.180;2023-11-19T03:21:27;4.07;;;3.10;;
13250;SDS011;6692;50.710;7.180;2023-11-19T03:23:28;3.27;;;2.40;;
13250;SDS011;6692;50.710;7.180;2023-11-19T03:25:29;3.70;;;2.50;;
13250;SDS011;6692;50.710;7.180;2023-11-19T03:27:31;3.23;;;2.47;;
13250;SDS011;6692;50.710;7.180;2023-11-19T03:29:32;3.07;;;2.50;;
13250;SDS011;6692;50.710;7.180;2023-11-19T03:31:33;5.53;;;3.03;;
13250;SDS011;6692;50.710;7.180;2023-11-19T03:33:34;3.63;;;2.90;;
13250;SDS011;6692;50.710;7.180;2023-11-19T03:35:34;5.83;;;4.17;;
13250;SDS011;6692;50.710;7.180;2023-11-19T03:37:35;7.00;;;4.73;;
13250;SDS011;6692;50.710;7.180;2023-11-19T03:39:36;6.27;;;4.37;;
13250;SDS011;6692;50.710;7.180;2023-11-19T03:41:37;6.40;;;4.23;;
13250;SDS011;6692;50.710;7.180;2023-11-19T03:43:38;4.97;;;3.77;;
13250;SDS011;6692;50.710;7.180;2023-11-19T03:45:38;4.10;;;3.23;;
13250;SDS011;6692;50.710;7.180;2023-11-19T03:47:39;4.27;;;3.13;;
13250;SDS011;6692;50.710;7.180;2023-11-19T03:49:40;4.43;;;3.40;;
13250;SDS011;6692;50.710;7.180;2023-11-19T03:51:41;3.67;;;2.90;;
13250;SDS011;6692;50.710;7.180;2023-11-19T03:53:43;3.47;;;3.17;;
13250;SDS011;6692;50.710;7.180;2023-11-19T03:55:43;4.37;;;3.20;;
13250;SDS011;6692;50.710;7.180;2023-11-19T03:57:44;5.80;;;2.40;;
13250;SDS011;6692;50.710;7.180;2023-11-19T03:59:45;3.60;;;2.70;;
13250;SDS011;6692;50.710;7.180;2023-11-19T04:01:46;4.87;;;3.00;;
13250;SDS011;6692;50.710;7.180;2023-11-19T04:03:47;5.43;;;3.47;;
13250;SDS011;6692;50.710;7.180;2023-11-19T04:05:48;5.70;;;2.77;;
13250;SDS011;6692;50.710;7.180;2023-11-19T04:07:50;4.07;;;2.50;;
13250;SDS011;6692;50.710;7.180;2023-11-19T04:09:51;2.53;;;1.97;;
13250;SDS011;6692;50.710;7.180;2023-11-19T04:11:52;3.50;;;2.00;;
13250;SDS011;6692;50.710;7.180;2023-11-19T04:13:53;5.33;;;2.00;;
13250;SDS011;6692;50.710;7.180;2023-11-19T04:15:54;3.73;;;2.10;;
13250;SDS011;6692;50.710;7.180;2023-11-19T04:17:54;3.53;;;2.20;;
13250;SDS011;6692;50.710;7.180;2023-11-19T04:19:55;4.77;;;2.60;;
13250;SDS011;6692;50.710;7.180;2023-11-19T04:21:56;4.43;;;1.90;;
13250;SDS011;6692;50.710;7.180;2023-11-19T04:23:57;3.10;;;2.10;;
13250;SDS011;6692;50.710;7.180;2023-11-19T04:25:57;3.97;;;2.13;;
13250;SDS011;6692;50.710;7.180;2023-11-19T04:27:58;4.43;;;2.03;;
13250;SDS011;6692;50.710;7.180;2023-11-19T04:29:59;2.83;;;1.77;;
13250;SDS011;6692;50.710;7.180;2023-11-19T04:32:00;3.13;;;1.90;;
13250;SDS011;6692;50.710;7.180;2023-11-19T04:34:01;2.33;;;1.80;;
13250;SDS011;6692;50.710;7.180;2023-11-19T04:36:01;4.47;;;2.20;;
13250;SDS011;6692;50.710;7.180;2023-11-19T04:38:02;3.77;;;1.77;;
13250;SDS011;6692;50.710;7.180;2023-11-19T04:40:03;2.83;;;1.80;;
13250;SDS011;6692;50.710;7.180;2023-11-19T04:42:05;1.70;;;1.60;;
13250;SDS011;6692;50.710;7.180;2023-11-19T04:44:06;2.53;;;1.67;;
13250;SDS011;6692;50.710;7.180;2023-11-19T04:46:09;2.73;;;1.80;;
13250;SDS011;6692;50.710;7.180;2023-11-19T04:48:08;2.97;;;1.90;;
13250;SDS011;6692;50.710;7.180;2023-11-19T04:50:09;3.30;;;2.00;;
13250;SDS011;6692;50.710;7.180;2023-11-19T04:52:10;1.97;;;1.77;;
13250;SDS011;6692;50.710;7.180;2023-11-19T04:54:11;1.53;;;1.43;;
13250;SDS011;6692;50.710;7.180;2023-11-19T04:56:12;2.10;;;1.67;;
13250;SDS011;6692;50.710;7.180;2023-11-19T04:58:13;3.23;;;2.00;;
13250;SDS011;6692;50.710;7.180;2023-11-19T05:00:14;2.87;;;2.00;;
13250;SDS011;6692;50.710;7.180;2023-11-19T05:02:15;2.37;;;1.97;;
13250;SDS011;6692;50.710;7.180;2023-11-19T05:04:15;2.27;;;1.93;;
13250;SDS011;6692;50.710;7.180;2023-11-19T05:06:16;4.23;;;2.13;;
13250;SDS011;6692;50.710;7.180;2023-11-19T05:08:17;2.17;;;1.83;;
13250;SDS011;6692;50.710;7.180;2023-11-19T05:10:18;2.37;;;1.80;;
13250;SDS011;6692;50.710;7.180;2023-11-19T05:12:19;2.90;;;2.13;;
13250;SDS011;6692;50.710;7.180;2023-11-19T05:14:20;2.03;;;1.83;;
13250;SDS011;6692;50.710;7.180;2023-11-19T05:16:22;1.97;;;1.60;;
13250;SDS011;6692;50.710;7.180;2023-11-19T05:18:24;1.70;;;1.60;;
13250;SDS011;6692;50.710;7.180;2023-11-19T05:20:25;1.60;;;1.50;;
13250;SDS011;6692;50.710;7.180;2023-11-19T05:22:26;4.63;;;1.53;;
13250;SDS011;6692;50.710;7.180;2023-11-19T05:24:27;1.70;;;1.47;;
13250;SDS011;6692;50.710;7.180;2023-11-19T05:26:27;1.93;;;1.60;;
13250;SDS011;6692;50.710;7.180;2023-11-19T05:28:28;1.50;;;1.40;;
13250;SDS011;6692;50.710;7.180;2023-11-19T05:30:30;1.60;;;1.50;;
13250;SDS011;6692;50.710;7.180;2023-11-19T05:32:31;1.60;;;1.50;;
13250;SDS011;6692;50.710;7.180;2023-11-19T05:34:32;2.30;;;1.80;;
13250;SDS011;6692;50.710;7.180;2023-11-19T05:36:33;1.77;;;1.67;;
13250;SDS011;6692;50.710;7.180;2023-11-19T05:38:34;2.30;;;1.70;;
13250;SDS011;6692;50.710;7.180;2023-11-19T05:40:35;4.30;;;1.80;;
13250;SDS011;6692;50.710;7.180;2023-11-19T05:42:37;2.70;;;1.60;;
13250;SDS011;6692;50.710;7.180;2023-11-19T05:44:36;3.87;;;1.93;;
13250;SDS011;6692;50.710;7.180;2023-11-19T05:46:37;5.27;;;2.00;;
13250;SDS011;6692;50.710;7.180;2023-11-19T05:48:38;4.63;;;2.33;;
13250;SDS011;6692;50.710;7.180;2023-11-19T05:50:39;5.50;;;2.50;;
13250;SDS011;6692;50.710;7.180;2023-11-19T05:52:40;5.07;;;2.60;;
13250;SDS011;6692;50.710;7.180;2023-11-19T05:54:41;9.13;;;2.70;;
13250;SDS011;6692;50.710;7.180;2023-11-19T05:56:42;6.40;;;2.80;;
13250;SDS011;6692;50.710;7.180;2023-11-19T05:58:42;7.10;;;2.80;;
13250;SDS011;6692;50.710;7.180;2023-11-19T06:00:43;7.57;;;3.00;;
13250;SDS011;6692;50.710;7.180;2023-11-19T06:02:44;8.80;;;3.20;;
13250;SDS011;6692;50.710;7.180;2023-11-19T06:04:45;7.17;;;2.90;;
13250;SDS011;6692;50.710;7.180;2023-11-19T06:06:46;6.03;;;2.87;;
13250;SDS011;6692;50.710;7.180;2023-11-19T06:08:46;6.07;;;3.00;;
13250;SDS011;6692;50.710;7.180;2023-11-19T06:10:47;7.53;;;3.03;;
13250;SDS011;6692;50.710;7.180;2023-11-19T06:12:48;7.63;;;3.10;;
13250;SDS011;6692;50.710;7.180;2023-11-19T06:14:49;6.73;;;2.80;;
13250;SDS011;6692;50.710;7.180;2023-11-19T06:16:50;10.33;;;3.33;;
13250;SDS011;6692;50.710;7.180;2023-11-19T06:18:51;6.10;;;3.30;;
13250;SDS011;6692;50.710;7.180;2023-11-19T06:20:52;11.83;;;3.90;;
13250;SDS011;6692;50.710;7.180;2023-11-19T06:22:53;9.10;;;3.43;;
13250;SDS011;6692;50.710;7.180;2023-11-19T06:24:53;7.17;;;3.43;;
13250;SDS011;6692;50.710;7.180;2023-11-19T06:26:54;10.03;;;3.33;;
13250;SDS011;6692;50.710;7.180;2023-11-19T06:28:55;10.20;;;3.23;;
13250;SDS011;6692;50.710;7.180;2023-11-19T06:30:56;10.10;;;3.37;;
13250;SDS011;6692;50.710;7.180;2023-11-19T06:32:56;7.47;;;3.37;;
13250;SDS011;6692;50.710;7.180;2023-11-19T06:34:57;9.70;;;3.13;;
13250;SDS011;6692;50.710;7.180;2023-11-19T06:36:58;7.27;;;3.30;;
13250;SDS011;6692;50.710;7.180;2023-11-19T06:38:59;6.67;;;3.10;;
13250;SDS011;6692;50.710;7.180;2023-11-19T06:40:59;3.50;;;2.50;;
13250;SDS011;6692;50.710;7.180;2023-11-19T06:43:00;5.53;;;2.77;;
13250;SDS011;6692;50.710;7.180;2023-11-19T06:45:01;3.47;;;2.30;;
13250;SDS011;6692;50.710;7.180;2023-11-19T06:47:02;3.70;;;2.20;;
13250;SDS011;6692;50.710;7.180;2023-11-19T06:49:03;4.87;;;2.77;;
13250;SDS011;6692;50.710;7.180;2023-11-19T06:51:05;4.20;;;3.30;;
13250;SDS011;6692;50.710;7.180;2023-11-19T06:53:06;6.63;;;2.80;;
13250;SDS011;6692;50.710;7.180;2023-11-19T06:55:07;12.97;;;3.77;;
13250;SDS011;6692;50.710;7.180;2023-11-19T06:57:08;15.50;;;3.67;;
13250;SDS011;6692;50.710;7.180;2023-11-19T06:59:09;7.63;;;3.37;;
13250;SDS011;6692;50.710;7.180;2023-11-19T07:01:10;10.47;;;3.00;;
13250;SDS011;6692;50.710;7.180;2023-11-19T07:03:12;6.87;;;3.53;;
13250;SDS011;6692;50.710;7.180;2023-11-19T07:05:13;6.37;;;2.60;;
13250;SDS011;6692;50.710;7.180;2023-11-19T07:07:14;9.50;;;3.40;;
13250;SDS011;6692;50.710;7.180;2023-11-19T07:09:15;7.43;;;3.60;;
13250;SDS011;6692;50.710;7.180;2023-11-19T07:11:16;6.33;;;2.60;;
13250;SDS011;6692;50.710;7.180;2023-11-19T07:13:17;6.80;;;2.97;;
13250;SDS011;6692;50.710;7.180;2023-11-19T07:15:18;4.93;;;2.90;;
13250;SDS011;6692;50.710;7.180;2023-11-19T07:17:19;5.50;;;2.90;;
13250;SDS011;6692;50.710;7.180;2023-11-19T07:19:20;10.20;;;3.40;;
13250;SDS011;6692;50.710;7.180;2023-11-19T07:21:22;10.27;;;3.27;;
13250;SDS011;6692;50.710;7.180;2023-11-19T07:23:22;8.80;;;3.17;;
13250;SDS011;6692;50.710;7.180;2023-11-19T07:25:23;11.93;;;3.83;;
13250;SDS011;6692;50.710;7.180;2023-11-19T07:27:24;9.63;;;3.47;;
13250;SDS011;6692;50.710;7.180;2023-11-19T07:29:25;11.90;;;3.53;;
13250;SDS011;6692;50.710;7.180;2023-11-19T07:31:26;7.33;;;3.40;;
13250;SDS011;6692;50.710;7.180;2023-11-19T07:33:26;7.53;;;3.40;;
13250;SDS011;6692;50.710;7.180;2023-11-19T07:35:27;8.30;;;3.07;;
13250;SDS011;6692;50.710;7.180;2023-11-19T07:37:28;9.33;;;3.07;;
13250;SDS011;6692;50.710;7.180;2023-11-19T07:39:29;6.70;;;3.10;;
13250;SDS011;6692;50.710;7.180;2023-11-19T07:41:30;7.97;;;2.87;;
13250;SDS011;6692;50.710;7.180;2023-11-19T07:43:32;16.13;;;4.50;;
13250;SDS011;6692;50.710;7.180;2023-11-19T07:45:32;14.67;;;3.93;;
13250;SDS011;6692;50.710;7.180;2023-11-19T07:47:34;18.37;;;4.87;;
13250;SDS011;6692;50.710;7.180;2023-11-19T07:49:34;14.53;;;4.07;;
13250;SDS011;6692;50.710;7.180;2023-11-19T07:51:35;15.63;;;4.33;;
13250;SDS011;6692;50.710;7.180;2023-11-19T07:53:36;15.53;;;4.37;;
13250;SDS011;6692;50.710;7.180;2023-11-19T07:55:37;10.53;;;3.87;;
13250;SDS011;6692;50.710;7.180;2023-11-19T07:57:38;15.63;;;4.37;;
13250;SDS011;6692;50.710;7.180;2023-11-19T07:59:38;11.63;;;4.00;;
13250;SDS011;6692;50.710;7.180;2023-11-19T08:01:39;9.80;;;3.70;;
13250;SDS011;6692;50.710;7.180;2023-11-19T08:03:40;11.10;;;3.83;;
13250;SDS011;6692;50.710;7.180;2023-11-19T08:05:41;12.90;;;4.30;;
13250;SDS011;6692;50.710;7.180;2023-11-19T08:07:42;10.30;;;3.77;;
13250;SDS011;6692;50.710;7.180;2023-11-19T08:09:42;12.70;;;4.40;;
13250;SDS011;6692;50.710;7.180;2023-11-19T08:11:43;12.17;;;4.10;;
13250;SDS011;6692;50.710;7.180;2023-11-19T08:13:45;14.50;;;4.60;;
13250;SDS011;6692;50.710;7.180;2023-11-19T08:15:46;10.10;;;3.90;;
13250;SDS011;6692;50.710;7.180;2023-11-19T08:17:46;16.13;;;4.60;;
13250;SDS011;6692;50.710;7.180;2023-11-19T08:19:47;11.60;;;3.53;;
13250;SDS011;6692;50.710;7.180;2023-11-19T08:21:48;14.73;;;4.40;;
13250;SDS011;6692;50.710;7.180;2023-11-19T08:23:49;11.43;;;4.10;;
13250;SDS011;6692;50.710;7.180;2023-11-19T08:25:50;10.57;;;3.93;;
13250;SDS011;6692;50.710;7.180;2023-11-19T08:27:51;13.13;;;4.37;;
13250;SDS011;6692;50.710;7.180;2023-11-19T08:29:53;15.37;;;4.33;;
13250;SDS011;6692;50.710;7.180;2023-11-19T08:31:54;9.83;;;3.60;;
13250;SDS011;6692;50.710;7.180;2023-11-19T08:33:54;11.60;;;3.20;;
13250;SDS011;6692;50.710;7.180;2023-11-19T08:35:55;10.40;;;4.40;;
13250;SDS011;6692;50.710;7.180;2023-11-19T08:37:56;13.03;;;4.63;;
13250;SDS011;6692;50.710;7.180;2023-11-19T08:39:57;13.40;;;4.43;;
13250;SDS011;6692;50.710;7.180;2023-11-19T08:41:58;17.37;;;4.47;;
13250;SDS011;6692;50.710;7.180;2023-11-19T08:43:59;14.60;;;4.27;;
13250;SDS011;6692;50.710;7.180;2023-11-19T08:46:01;12.37;;;4.43;;
13250;SDS011;6692;50.710;7.180;2023-11-19T08:48:02;12.53;;;4.40;;
13250;SDS011;6692;50.710;7.180;2023-11-19T08:50:05;17.07;;;4.80;;
13250;SDS011;6692;50.710;7.180;2023-11-19T08:52:07;14.23;;;4.20;;
13250;SDS011;6692;50.710;7.180;2023-11-19T08:54:11;13.20;;;4.77;;
13250;SDS011;6692;50.710;7.180;2023-11-19T08:56:24;14.60;;;4.40;;
13250;SDS011;6692;50.710;7.180;2023-11-19T08:58:32;9.00;;;3.70;;
13250;SDS011;6692;50.710;7.180;2023-11-19T09:00:35;11.77;;;3.80;;
13250;SDS011;6692;50.710;7.180;2023-11-19T09:02:37;12.90;;;4.20;;
13250;SDS011;6692;50.710;7.180;2023-11-19T09:04:40;7.43;;;4.23;;
13250;SDS011;6692;50.710;7.180;2023-11-19T09:06:41;15.50;;;4.33;;
13250;SDS011;6692;50.710;7.180;2023-11-19T09:08:43;10.57;;;4.30;;
13250;SDS011;6692;50.710;7.180;2023-11-19T09:10:44;12.30;;;4.10;;
13250;SDS011;6692;50.710;7.180;2023-11-19T09:12:45;11.73;;;4.20;;
13250;SDS011;6692;50.710;7.180;2023-11-19T09:14:53;14.97;;;4.67;;
13250;SDS011;6692;50.710;7.180;2023-11-19T09:16:54;14.57;;;4.50;;
13250;SDS011;6692;50.710;7.180;2023-11-19T09:18:55;10.87;;;4.00;;
13250;SDS011;6692;50.710;7.180;2023-11-19T09:20:57;13.23;;;4.20;;
13250;SDS011;6692;50.710;7.180;2023-11-19T09:22:58;13.90;;;4.97;;
13250;SDS011;6692;50.710;7.180;2023-11-19T09:24:59;13.97;;;4.60;;
13250;SDS011;6692;50.710;7.180;2023-11-19T09:27:00;14.53;;;4.53;;
13250;SDS011;6692;50.710;7.180;2023-11-19T09:29:02;11.93;;;4.63;;
13250;SDS011;6692;50.710;7.180;2023-11-19T09:31:02;14.40;;;3.90;;
13250;SDS011;6692;50.710;7.180;2023-11-19T09:33:04;14.67;;;5.17;;
13250;SDS011;6692;50.710;7.180;2023-11-19T09:35:05;18.43;;;4.63;;
13250;SDS011;6692;50.710;7.180;2023-11-19T09:37:06;16.73;;;4.40;;
13250;SDS011;6692;50.710;7.180;2023-11-19T09:39:07;17.20;;;4.50;;
13250;SDS011;6692;50.710;7.180;2023-11-19T09:41:09;17.33;;;4.83;;
13250;SDS011;6692;50.710;7.180;2023-11-19T09:43:09;12.93;;;4.47;;
13250;SDS011;6692;50.710;7.180;2023-11-19T09:45:12;17.27;;;4.93;;
13250;SDS011;6692;50.710;7.180;2023-11-19T09:47:11;18.73;;;4.90;;
13250;SDS011;6692;50.710;7.180;2023-11-19T09:49:11;13.83;;;5.07;;
13250;SDS011;6692;50.710;7.180;2023-11-19T09:51:12;21.23;;;5.13;;
13250;SDS011;6692;50.710;7.180;2023-11-19T09:53:13;18.43;;;4.70;;
13250;SDS011;6692;50.710;7.180;2023-11-19T09:55:14;14.50;;;4.20;;
13250;SDS011;6692;50.710;7.180;2023-11-19T09:57:16;14.40;;;4.30;;
13250;SDS011;6692;50.710;7.180;2023-11-19T10:01:31;11.67;;;4.30;;
13250;SDS011;6692;50.710;7.180;2023-11-19T10:03:33;21.03;;;5.33;;
13250;SDS011;6692;50.710;7.180;2023-11-19T10:05:33;12.97;;;4.10;;
13250;SDS011;6692;50.710;7.180;2023-11-19T10:07:34;11.90;;;4.27;;
13250;SDS011;6692;50.710;7.180;2023-11-19T10:09:36;13.53;;;4.27;;
13250;SDS011;6692;50.710;7.180;2023-11-19T10:11:36;18.83;;;4.40;;
13250;SDS011;6692;50.710;7.180;2023-11-19T10:13:37;14.77;;;4.53;;
13250;SDS011;6692;50.710;7.180;2023-11-19T10:15:38;16.03;;;4.43;;
13250;SDS011;6692;50.710;7.180;2023-11-19T10:17:39;13.23;;;4.63;;
13250;SDS011;6692;50.710;7.180;2023-11-19T10:19:40;15.20;;;4.57;;
13250;SDS011;6692;50.710;7.180;2023-11-19T10:21:40;16.33;;;4.07;;
13250;SDS011;6692;50.710;7.180;2023-11-19T10:25:48;11.23;;;3.80;;
13250;SDS011;6692;50.710;7.180;2023-11-19T10:27:50;19.53;;;4.87;;
13250;SDS011;6692;50.710;7.180;2023-11-19T10:29:50;17.13;;;4.77;;
13250;SDS011;6692;50.710;7.180;2023-11-19T10:31:55;15.33;;;4.63;;
13250;SDS011;6692;50.710;7.180;2023-11-19T10:33:55;15.50;;;4.63;;
13250;SDS011;6692;50.710;7.180;2023-11-19T10:35:57;13.50;;;4.97;;
13250;SDS011;6692;50.710;7.180;2023-11-19T10:37:58;15.10;;;4.47;;
13250;SDS011;6692;50.710;7.180;2023-11-19T10:39:58;11.90;;;4.43;;
13250;SDS011;6692;50.710;7.180;2023-11-19T10:42:05;13.33;;;4.50;;
13250;SDS011;6692;50.710;7.180;2023-11-19T10:43:59;14.67;;;4.63;;
13250;SDS011;6692;50.710;7.180;2023-11-19T10:48:11;15.93;;;5.10;;
13250;SDS011;6692;50.710;7.180;2023-11-19T10:50:13;13.73;;;4.07;;
13250;SDS011;6692;50.710;7.180;2023-11-19T10:52:18;14.67;;;4.30;;
13250;SDS011;6692;50.710;7.180;2023-11-19T10:54:15;15.40;;;4.30;;
13250;SDS011;6692;50.710;7.180;2023-11-19T10:56:15;13.97;;;4.17;;
13250;SDS011;6692;50.710;7.180;2023-11-19T10:58:16;18.27;;;4.87;;
13250;SDS011;6692;50.710;7.180;2023-11-19T11:00:17;11.87;;;4.40;;
13250;SDS011;6692;50.710;7.180;2023-11-19T11:02:21;14.83;;;4.70;;
13250;SDS011;6692;50.710;7.180;2023-11-19T11:04:22;13.67;;;4.23;;
13250;SDS011;6692;50.710;7.180;2023-11-19T11:06:21;13.87;;;4.43;;
13250;SDS011;6692;50.710;7.180;2023-11-19T11:08:22;13.80;;;4.40;;
13250;SDS011;6692;50.710;7.180;2023-11-19T11:10:25;14.43;;;4.70;;
13250;SDS011;6692;50.710;7.180;2023-11-19T11:12:24;13.50;;;4.23;;
13250;SDS011;6692;50.710;7.180;2023-11-19T11:14:26;15.30;;;4.17;;
13250;SDS011;6692;50.710;7.180;2023-11-19T11:16:26;15.53;;;4.17;;
13250;SDS011;6692;50.710;7.180;2023-11-19T11:18:27;10.90;;;3.67;;
13250;SDS011;6692;50.710;7.180;2023-11-19T11:20:30;13.80;;;3.83;;
13250;SDS011;6692;50.710;7.180;2023-11-19T11:22:32;15.17;;;4.23;;
13250;SDS011;6692;50.710;7.180;2023-11-19T11:29:41;10.70;;;3.87;;
13250;SDS011;6692;50.710;7.180;2023-11-19T11:31:54;15.03;;;3.93;;
13250;SDS011;6692;50.710;7.180;2023-11-19T11:34:05;12.60;;;4.23;;
13250;SDS011;6692;50.710;7.180;2023-11-19T11:36:15;12.03;;;4.10;;
13250;SDS011;6692;50.710;7.180;2023-11-19T11:38:14;15.47;;;4.63;;
13250;SDS011;6692;50.710;7.180;2023-11-19T11:40:15;17.70;;;4.47;;
13250;SDS011;6692;50.710;7.180;2023-11-19T11:42:32;13.53;;;4.40;;
13250;SDS011;6692;50.710;7.180;2023-11-19T11:48:54;12.43;;;3.93;;
13250;SDS011;6692;50.710;7.180;2023-11-19T11:50:56;8.03;;;3.37;;
13250;SDS011;6692;50.710;7.180;2023-11-19T11:55:13;11.83;;;4.00;;
13250;SDS011;6692;50.710;7.180;2023-11-19T11:57:14;11.17;;;4.10;;
13250;SDS011;6692;50.710;7.180;2023-11-19T11:59:18;12.83;;;4.07;;
13250;SDS011;6692;50.710;7.180;2023-11-19T12:01:19;15.23;;;4.70;;
13250;SDS011;6692;50.710;7.180;2023-11-19T12:03:20;13.87;;;3.97;;
13250;SDS011;6692;50.710;7.180;2023-11-19T12:05:21;13.67;;;4.23;;
13250;SDS011;6692;50.710;7.180;2023-11-19T12:07:22;9.97;;;3.67;;
13250;SDS011;6692;50.710;7.180;2023-11-19T12:09:22;12.77;;;3.70;;
13250;SDS011;6692;50.710;7.180;2023-11-19T12:11:24;12.70;;;4.10;;
13250;SDS011;6692;50.710;7.180;2023-11-19T12:13:29;12.43;;;4.07;;
13250;SDS011;6692;50.710;7.180;2023-11-19T12:15:26;12.20;;;3.60;;
13250;SDS011;6692;50.710;7.180;2023-11-19T12:17:41;11.77;;;3.43;;
13250;SDS011;6692;50.710;7.180;2023-11-19T12:19:50;12.20;;;3.90;;
13250;SDS011;6692;50.710;7.180;2023-11-19T12:21:51;11.33;;;4.37;;
13250;SDS011;6692;50.710;7.180;2023-11-19T12:23:52;13.07;;;3.53;;
13250;SDS011;6692;50.710;7.180;2023-11-19T12:25:53;16.37;;;3.60;;
13250;SDS011;6692;50.710;7.180;2023-11-19T12:27:54;11.83;;;3.63;;
13250;SDS011;6692;50.710;7.180;2023-11-19T12:29:54;8.67;;;3.07;;
13250;SDS011;6692;50.710;7.180;2023-11-19T12:31:55;14.90;;;3.87;;
13250;SDS011;6692;50.710;7.180;2023-11-19T12:33:56;10.00;;;3.87;;
13250;SDS011;6692;50.710;7.180;2023-11-19T12:35:57;8.17;;;3.47;;